Flight Track Log - Related Links

Times and Time Zones

All times are in EST time to prevent confusion due to time zone crossing. See the PDT4226 flight status page for this flight to view local times or setup timezone preferences in your user account.


Time Position Orientation Groundspeed Altitude Reporting Facility
EST Latitude Longitude Course Direction KTS MPH feet Rate Location/Type
Sun 11:49:24 AM 39.9000 -75.2333 311° West 118 136 700  Level Philadelphia TRACON
Sun 11:50:12 AM 39.9000 -75.2667 270° West 125 144 2,000 1,500 Climbing Philadelphia TRACON
Sun 11:51:12 AM 39.9167 -75.3167 294° West 128 147 3,400 1,421 Climbing Philadelphia TRACON
Sun 11:52:00 AM 40.0477 -75.3978 323° Northwest  Level FlightAware Approximate
Sun 11:52:06 AM 39.9333 -75.3500 303° West 128 147 4,700  Level Philadelphia TRACON
Sun 11:53:00 AM 40.1085 -75.4503 303° West  Level FlightAware Approximate
Sun 11:53:12 AM 39.9500 -75.4000 294° West 124 143 6,400  Level Philadelphia TRACON
Sun 11:54:00 AM 40.1676 -75.5014 311° West  Level FlightAware Approximate
Sun 11:54:08 AM 39.9653 -75.4294 304° West 120 138 7,500  Level New York Center
Sun 11:55:08 AM 39.9867 -75.4661 307° West 120 138 8,700 1,300 Climbing New York Center
Sun 11:56:08 AM 40.0278 -75.4797 346° North 137 158 10,100 1,250 Climbing New York Center
Sun 11:57:08 AM 40.0711 -75.4961 344° North 150 173 11,200 950 Climbing New York Center
Sun 11:58:08 AM 40.1142 -75.5125 344° North 162 186 12,000 400 Climbing New York Center
Sun 11:59:08 AM 40.1672 -75.5406 338° Northwest 180 207 12,000 -50 Level New York Center
Sun 12:00:08 PM 40.2328 -75.5642 345° North 231 266 11,900 -50 Descending New York Center
Sun 12:01:08 PM 40.2661 -75.6183 309° West 219 252 11,900 950 Level New York Center
Sun 12:02:08 PM 40.2994 -75.6669 312° West 200 230 13,800 1,000 Climbing New York Center
Sun 12:03:08 PM 40.3350 -75.7183 312° West 172 198 13,900 50 Climbing New York Center
Sun 12:04:08 PM 40.3617 -75.7747 302° West 178 205 13,900  Level New York Center
Sun 12:05:08 PM 40.3989 -75.8292 312° West 189 217 13,900  Level New York Center
Sun 12:06:08 PM 40.4361 -75.8839 312° West 208 239 13,900  Level New York Center
Sun 12:07:08 PM 40.4772 -75.9497 309° West 215 247 13,900  Level New York Center
Sun 12:08:08 PM 40.5142 -76.0069 310° West 210 242 13,900  Level New York Center
Sun 12:09:08 PM 40.5511 -76.0700 308° West 210 242 13,900  Level New York Center
Sun 12:10:08 PM 40.5861 -76.1217 312° West 215 247 13,900  Level New York Center
Sun 12:11:08 PM 40.6272 -76.1797 313° West 215 247 13,900  Level New York Center
Sun 12:12:08 PM 40.6639 -76.2428 307° West 210 242 13,900  Level New York Center
Sun 12:13:08 PM 40.7194 -76.2581 348° North 202 232 13,900  Level New York Center
Sun 12:14:08 PM 40.7931 -76.2450 North 232 267 13,900  Level New York Center
Sun 12:15:08 PM 40.8536 -76.2414 North 247 284 13,900  Level New York Center
Sun 12:16:08 PM 40.9269 -76.2336 North 252 290 13,900  Level New York Center
Sun 12:17:08 PM 41.0022 -76.2286 North 257 296 13,900 50 Level New York Center
Sun 12:18:08 PM 41.0669 -76.2256 North 255 293 14,000 50 Climbing New York Center
Sun 12:19:08 PM 41.1383 -76.2150 North 255 293 14,000  Level New York Center
Sun 12:20:08 PM 41.2158 -76.2072 North 255 293 14,000 -450 Level New York Center
Sun 12:21:08 PM 41.2886 -76.2050 North 255 293 13,100 -900 Descending New York Center
Sun 12:22:08 PM 41.3686 -76.1892 North 269 310 12,200 -950 Descending New York Center
Sun 12:23:08 PM 41.4397 -76.1811 North 280 322 11,200 -1,000 Descending New York Center
Sun 12:24:08 PM 41.5125 -76.1842 358° North 270 311 10,200 -1,050 Descending New York Center
Sun 12:25:08 PM 41.5956 -76.1936 355° North 265 305 9,100 -600 Descending New York Center
Sun 12:26:08 PM 41.6667 -76.1856 North 265 305 9,000 -50 Descending New York Center
Sun 12:27:08 PM 41.7317 -76.1769 North 249 287 9,000 -550 Level New York Center
Sun 12:28:08 PM 41.7919 -76.1764 360° North 237 273 7,900 -1,300 Descending New York Center
Sun 12:29:08 PM 41.8594 -76.1594 11° North 242 278 6,400 -1,550 Descending New York Center
Sun 12:30:08 PM 41.9136 -76.0664 52° Northeast 258 297 4,800 -1,200 Descending New York Center
Sun 12:31:08 PM 41.9625 -75.9978 46° Northeast 266 306 4,000 -400 Descending New York Center
Sun 12:32:08 PM 42.0111 -75.9292 46° Northeast 261 300 4,000  Level New York Center
Sun 12:33:08 PM 42.0531 -75.8764 43° Northeast 234 269 4,000 -50 Level New York Center
Sun 12:34:08 PM 42.1042 -75.8944 345° North 184 212 3,900 -500 Descending New York Center
Sun 12:35:08 PM 42.1425 -75.9281 327° Northwest 161 185 3,000 -850 Descending New York Center
Sun 12:36:08 PM 42.1725 -75.9528 329° Northwest 149 171 2,200 -450 Descending New York Center
Sun 12:37:08 PM 42.2150 -75.9786 336° Northwest 142 163 2,100 -100 Descending New York Center

Login

Don't have an account? Register now (free) for customized features, flight alerts, and more!